createdAt,value
2019-05-23T00:00:04.123Z,9.68
2019-05-23T00:02:41.238Z,9.13
2019-05-23T00:05:12.912Z,10.10
2019-05-23T00:07:43.443Z,10.30
2019-05-23T00:10:15.010Z,9.90
2019-05-23T00:12:47.308Z,10.78
2019-05-23T00:15:35.143Z,12.00
2019-05-23T00:18:06.450Z,11.20
2019-05-23T00:20:36.323Z,11.25
2019-05-23T00:23:08.511Z,10.53
2019-05-23T00:25:38.153Z,10.58
2019-05-23T00:28:08.936Z,11.25
2019-05-23T00:30:40.229Z,9.65
2019-05-23T00:33:11.405Z,11.80
2019-05-23T00:35:41.962Z,11.00
2019-05-23T00:38:13.303Z,9.43
2019-05-23T00:40:44.402Z,9.13
2019-05-23T00:43:15.019Z,10.32
2019-05-23T00:45:44.854Z,11.68
2019-05-23T00:48:15.033Z,9.80
2019-05-23T00:50:44.582Z,9.68
2019-05-23T00:53:14.581Z,9.80
2019-05-23T00:55:44.709Z,10.30
2019-05-23T00:58:14.936Z,9.50
2019-05-23T01:00:44.302Z,10.58
2019-05-23T01:03:16.435Z,10.08
2019-05-23T01:05:46.002Z,9.58
2019-05-23T01:08:15.606Z,10.70
2019-05-23T01:10:45.472Z,10.08
2019-05-23T01:13:15.225Z,9.80
2019-05-23T01:15:44.851Z,8.95
2019-05-23T01:18:15.679Z,8.75
2019-05-23T01:20:49.639Z,13.13
2019-05-23T01:23:18.984Z,9.40
2019-05-23T01:25:48.564Z,10.25
2019-05-23T01:28:18.406Z,11.60
2019-05-23T01:30:50.581Z,11.12
2019-05-23T01:33:21.409Z,9.80
2019-05-23T01:35:50.797Z,11.50
2019-05-23T01:38:21.015Z,10.13
2019-05-23T01:40:51.130Z,10.63
2019-05-23T01:43:22.667Z,9.73
2019-05-23T01:45:52.116Z,12.88
2019-05-23T01:48:22.131Z,10.65
2019-05-23T01:50:51.457Z,10.55
2019-05-23T01:53:21.399Z,11.45
2019-05-23T01:55:50.855Z,12.05
2019-05-23T01:58:20.630Z,11.53
2019-05-23T02:00:50.419Z,11.83
2019-05-23T02:03:21.064Z,13.22
2019-05-23T02:05:50.539Z,12.82
2019-05-23T02:08:19.891Z,14.35
2019-05-23T02:10:49.463Z,12.33
2019-05-23T02:13:19.699Z,13.40
2019-05-23T02:15:49.448Z,13.93
2019-05-23T02:18:18.747Z,13.50
2019-05-23T02:20:48.120Z,13.48
2019-05-23T02:23:17.991Z,12.15
2019-05-23T02:25:48.610Z,14.58
2019-05-23T02:28:18.835Z,12.53
2019-05-23T02:30:48.977Z,12.47
2019-05-23T02:33:18.789Z,11.30
2019-05-23T02:35:48.352Z,11.53
2019-05-23T02:38:37.419Z,11.45
2019-05-23T02:41:08.425Z,11.22
2019-05-23T02:43:38.496Z,11.33
2019-05-23T02:46:25.671Z,10.82
2019-05-23T02:48:56.659Z,11.43
2019-05-23T02:51:32.412Z,11.25
2019-05-23T02:54:04.020Z,11.45
2019-05-23T02:56:38.734Z,11.83
2019-05-23T02:59:15.584Z,10.13
2019-05-23T03:02:19.841Z,11.73
2019-05-23T03:04:50.005Z,11.95
2019-05-23T03:07:21.811Z,10.15
2019-05-23T03:09:51.758Z,10.43
2019-05-23T03:12:24.995Z,11.05
2019-05-23T03:14:53.291Z,10.55
2019-05-23T03:17:25.156Z,10.88
2019-05-23T03:19:57.123Z,10.30
2019-05-23T03:22:37.549Z,10.75
2019-05-23T03:25:14.514Z,12.70
2019-05-23T03:27:45.448Z,11.85
2019-05-23T03:30:22.294Z,11.05
2019-05-23T03:32:56.465Z,12.30
2019-05-23T03:35:42.078Z,11.95
2019-05-23T03:38:12.652Z,13.15
2019-05-23T03:40:42.318Z,12.90
2019-05-23T03:43:12.452Z,12.13
2019-05-23T03:45:47.618Z,13.00
2019-05-23T03:48:18.828Z,12.43
2019-05-23T03:50:49.044Z,13.58
2019-05-23T03:53:20.249Z,12.75
2019-05-23T03:55:52.333Z,13.35
2019-05-23T03:58:22.961Z,14.43
2019-05-23T04:00:54.206Z,13.18
2019-05-23T04:03:24.412Z,13.28
2019-05-23T04:05:55.555Z,13.93
2019-05-23T04:08:27.108Z,13.98
2019-05-23T04:10:57.316Z,13.22
2019-05-23T04:13:26.669Z,13.08
2019-05-23T04:15:55.964Z,13.70
2019-05-23T04:18:25.988Z,14.98
2019-05-23T04:20:55.469Z,13.50
2019-05-23T04:23:24.845Z,12.70
2019-05-23T04:25:54.464Z,13.15
2019-05-23T04:28:23.767Z,14.75
2019-05-23T04:30:53.265Z,12.78
2019-05-23T04:33:22.564Z,12.80
2019-05-23T04:35:51.852Z,13.70
2019-05-23T04:38:21.154Z,13.48
2019-05-23T04:40:50.472Z,15.45
2019-05-23T04:43:20.021Z,13.05
2019-05-23T04:45:49.679Z,12.82
2019-05-23T04:48:19.749Z,12.33
2019-05-23T04:50:49.053Z,13.50
2019-05-23T04:53:18.815Z,14.15
2019-05-23T04:55:48.501Z,15.08
2019-05-23T04:58:18.158Z,16.93
2019-05-23T05:00:47.460Z,16.37
2019-05-23T05:03:18.855Z,15.55
2019-05-23T05:05:49.162Z,16.60
2019-05-23T05:08:18.452Z,17.55
2019-05-23T05:10:48.273Z,16.73
2019-05-23T05:13:18.295Z,14.65
2019-05-23T05:15:47.667Z,14.87
2019-05-23T05:18:17.121Z,16.17
2019-05-23T05:20:46.407Z,16.70
2019-05-23T05:23:15.779Z,15.63
2019-05-23T05:25:45.082Z,16.23
2019-05-23T05:28:14.380Z,16.12
2019-05-23T05:30:44.227Z,15.70
2019-05-23T05:33:13.607Z,15.70
2019-05-23T05:35:43.408Z,14.50
2019-05-23T05:38:12.983Z,16.55
2019-05-23T05:40:42.281Z,16.70
2019-05-23T05:43:12.031Z,15.05
2019-05-23T05:45:42.099Z,17.07
2019-05-23T05:48:11.743Z,15.48
2019-05-23T05:50:41.339Z,15.43
2019-05-23T05:53:11.392Z,16.52
2019-05-23T05:55:40.697Z,16.82
2019-05-23T05:58:10.000Z,15.55
2019-05-23T06:00:47.174Z,17.00
2019-05-23T06:03:16.536Z,16.55
2019-05-23T06:06:03.697Z,16.45
2019-05-23T06:08:34.913Z,17.55
2019-05-23T06:11:04.368Z,16.97
2019-05-23T06:13:33.684Z,23.73
2019-05-23T06:16:03.056Z,18.15
2019-05-23T06:18:32.368Z,18.07
2019-05-23T06:21:02.754Z,18.20
2019-05-23T06:23:33.227Z,19.37
2019-05-23T06:26:02.542Z,18.42
2019-05-23T06:28:32.912Z,18.52
2019-05-23T06:31:03.419Z,19.15
2019-05-23T06:33:32.723Z,20.45
2019-05-23T06:36:02.588Z,19.55
2019-05-23T06:38:32.087Z,19.60
2019-05-23T06:41:02.644Z,22.25
2019-05-23T06:43:34.747Z,22.93
2019-05-23T06:46:04.492Z,18.37
2019-05-23T06:48:34.323Z,19.00
2019-05-23T06:51:03.987Z,19.65
2019-05-23T06:53:33.351Z,20.90
2019-05-23T06:56:02.665Z,18.50
2019-05-23T06:58:32.434Z,16.93
2019-05-23T07:01:01.836Z,15.10
2019-05-23T07:03:41.589Z,16.07
2019-05-23T07:06:03.421Z,16.23
2019-05-23T07:08:33.386Z,16.65
2019-05-23T07:11:03.219Z,15.98
2019-05-23T07:13:35.079Z,16.35
2019-05-23T07:16:05.860Z,18.15
2019-05-23T07:18:35.228Z,16.45
2019-05-23T07:21:04.805Z,15.15
2019-05-23T07:23:34.153Z,19.40
2019-05-23T07:26:03.541Z,18.82
2019-05-23T07:28:34.087Z,17.25
2019-05-23T07:31:03.967Z,23.90
2019-05-23T07:33:33.281Z,17.92
2019-05-23T07:36:02.835Z,20.02
2019-05-23T07:38:32.148Z,22.30
2019-05-23T07:41:02.143Z,26.93
2019-05-23T07:43:31.567Z,17.98
2019-05-23T07:46:01.830Z,18.12
2019-05-23T07:48:31.200Z,17.57
2019-05-23T07:51:00.623Z,17.73
2019-05-23T07:53:31.843Z,16.02
2019-05-23T07:56:02.175Z,17.73
2019-05-23T07:58:31.643Z,18.10
2019-05-23T08:01:06.006Z,16.17
2019-05-23T08:03:38.351Z,15.93
2019-05-23T08:06:09.022Z,17.02
2019-05-23T08:08:38.584Z,16.95
2019-05-23T08:11:08.266Z,16.17
2019-05-23T08:13:37.856Z,14.93
2019-05-23T08:16:07.183Z,15.53
2019-05-23T08:18:36.908Z,15.78
2019-05-23T08:21:06.456Z,15.30
2019-05-23T08:23:35.763Z,15.00
2019-05-23T08:26:05.371Z,15.75
2019-05-23T08:28:35.213Z,16.02
2019-05-23T08:31:05.195Z,18.12
2019-05-23T08:33:35.222Z,17.02
2019-05-23T08:36:05.537Z,16.60
2019-05-23T08:38:36.205Z,17.45
2019-05-23T08:41:06.869Z,17.80
2019-05-23T08:43:36.168Z,19.12
2019-05-23T08:46:06.632Z,23.65
2019-05-23T08:48:36.296Z,20.05
2019-05-23T08:51:06.196Z,17.35
2019-05-23T08:53:35.502Z,18.32
2019-05-23T08:56:17.381Z,19.35
2019-05-23T08:58:35.940Z,20.60
2019-05-23T09:01:05.611Z,20.57
2019-05-23T09:03:35.451Z,20.70
2019-05-23T09:06:04.810Z,20.05
2019-05-23T09:08:34.560Z,20.85
2019-05-23T09:11:04.887Z,18.55
2019-05-23T09:13:34.251Z,20.32
2019-05-23T09:16:04.383Z,20.32
2019-05-23T09:18:33.683Z,21.73
2019-05-23T09:21:03.375Z,20.55
2019-05-23T09:23:33.020Z,19.52
2019-05-23T09:26:02.384Z,17.85
2019-05-23T09:28:31.675Z,19.92
2019-05-23T09:31:00.987Z,15.58
2019-05-23T09:33:30.351Z,15.98
2019-05-23T09:36:00.079Z,17.40
2019-05-23T09:38:29.415Z,16.73
2019-05-23T09:40:58.798Z,15.75
2019-05-23T09:43:28.172Z,19.82
2019-05-23T09:45:57.492Z,17.85
2019-05-23T09:48:26.854Z,19.00
2019-05-23T09:50:56.237Z,18.42
2019-05-23T09:53:25.842Z,18.48
2019-05-23T09:55:55.971Z,17.92
2019-05-23T09:58:25.448Z,18.12
2019-05-23T10:00:55.004Z,19.57
2019-05-23T10:03:24.555Z,19.80
2019-05-23T10:05:54.067Z,18.42
2019-05-23T10:08:23.375Z,17.48
2019-05-23T10:10:53.248Z,19.07
2019-05-23T10:13:37.873Z,21.17
2019-05-23T10:15:55.444Z,18.98
2019-05-23T10:18:24.737Z,18.87
2019-05-23T10:20:54.217Z,18.52
2019-05-23T10:23:23.571Z,21.57
2019-05-23T10:25:52.871Z,18.55
2019-05-23T10:28:22.157Z,21.68
2019-05-23T10:30:51.471Z,21.82
2019-05-23T10:33:20.757Z,20.00
2019-05-23T10:35:59.816Z,23.02
2019-05-23T10:38:21.034Z,19.85
2019-05-23T10:40:50.618Z,23.42
2019-05-23T10:43:19.964Z,23.80
2019-05-23T10:45:49.408Z,21.25
2019-05-23T10:48:18.873Z,23.60
2019-05-23T10:50:48.461Z,20.43
2019-05-23T10:53:18.400Z,22.00
2019-05-23T10:55:47.847Z,20.15
2019-05-23T10:58:17.800Z,24.55
2019-05-23T11:00:47.281Z,25.32
2019-05-23T11:03:17.480Z,23.40
2019-05-23T11:05:47.131Z,20.57
2019-05-23T11:08:16.441Z,20.72
2019-05-23T11:10:46.995Z,19.82
2019-05-23T11:13:16.450Z,19.82
2019-05-23T11:15:46.204Z,19.95
2019-05-23T11:18:16.195Z,17.35
2019-05-23T11:20:45.761Z,14.23
2019-05-23T11:23:16.977Z,14.85
2019-05-23T11:25:46.495Z,16.40
2019-05-23T11:28:16.100Z,17.07
2019-05-23T11:30:49.980Z,13.80
2019-05-23T11:33:20.372Z,13.03
2019-05-23T11:35:50.516Z,13.85
2019-05-23T11:38:20.365Z,20.37
2019-05-23T11:40:50.200Z,13.62
2019-05-23T11:43:19.489Z,15.28
2019-05-23T11:45:56.747Z,14.95
2019-05-23T11:48:26.099Z,12.18
2019-05-23T11:50:55.412Z,15.50
2019-05-23T11:53:25.060Z,9.55
2019-05-23T11:55:54.829Z,14.18
2019-05-23T11:58:24.272Z,14.93
2019-05-23T12:01:00.942Z,14.35
2019-05-23T12:03:30.315Z,12.90
2019-05-23T12:05:59.619Z,13.83
2019-05-23T12:08:29.344Z,14.55
2019-05-23T12:10:58.763Z,14.30
2019-05-23T12:13:28.453Z,14.00
2019-05-23T12:15:58.293Z,12.70
2019-05-23T12:18:28.524Z,11.55
2019-05-23T12:20:59.763Z,12.58
2019-05-23T12:23:28.885Z,12.20
2019-05-23T12:25:58.167Z,11.95
2019-05-23T12:28:28.573Z,10.08
2019-05-23T12:30:58.288Z,10.68
2019-05-23T12:33:27.577Z,9.08
2019-05-23T12:35:56.859Z,11.50
2019-05-23T12:38:26.153Z,9.68
2019-05-23T12:40:55.420Z,8.60
2019-05-23T12:43:24.732Z,9.18
2019-05-23T12:45:54.240Z,9.85
2019-05-23T12:48:28.065Z,9.10
2019-05-23T12:51:10.917Z,9.15
2019-05-23T12:53:40.270Z,10.75
2019-05-23T12:56:09.925Z,10.63
2019-05-23T12:58:39.563Z,10.30
2019-05-23T13:01:10.568Z,10.35
2019-05-23T13:03:39.913Z,10.58
2019-05-23T13:06:09.229Z,9.78
2019-05-23T13:08:38.488Z,10.03
2019-05-23T13:11:08.180Z,10.68
2019-05-23T13:13:37.463Z,10.78
2019-05-23T13:16:06.747Z,9.53
2019-05-23T13:18:36.035Z,9.40
2019-05-23T13:21:05.475Z,8.93
2019-05-23T13:23:34.867Z,10.58
2019-05-23T13:26:05.211Z,8.73
2019-05-23T13:28:34.763Z,9.48
2019-05-23T13:31:04.048Z,9.35
2019-05-23T13:33:33.625Z,10.30
2019-05-23T13:36:03.861Z,9.15
2019-05-23T13:38:33.140Z,9.33
2019-05-23T13:41:02.499Z,8.93
2019-05-23T13:43:32.115Z,10.15
2019-05-23T13:46:01.549Z,7.97
2019-05-23T13:48:30.909Z,7.72
2019-05-23T13:51:00.370Z,7.90
2019-05-23T13:53:30.013Z,8.60
2019-05-23T13:55:59.706Z,8.73
2019-05-23T13:58:29.604Z,11.18
2019-05-23T14:00:59.788Z,8.70
2019-05-23T14:03:29.629Z,9.48
2019-05-23T14:05:59.171Z,8.65
2019-05-23T14:08:28.676Z,7.78
2019-05-23T14:10:57.969Z,8.03
2019-05-23T14:13:27.757Z,9.03
2019-05-23T14:15:57.428Z,9.28
2019-05-23T14:18:28.363Z,9.03
2019-05-23T14:20:57.912Z,9.75
2019-05-23T14:23:31.138Z,8.53
2019-05-23T14:26:00.643Z,7.30
2019-05-23T14:28:30.738Z,7.95
2019-05-23T14:31:01.802Z,9.90
2019-05-23T14:33:44.491Z,7.70
2019-05-23T14:36:18.367Z,7.75
2019-05-23T14:38:48.254Z,7.50
2019-05-23T14:41:17.525Z,8.30
2019-05-23T14:43:48.759Z,8.15
2019-05-23T14:46:19.684Z,7.62
2019-05-23T14:48:57.058Z,9.40
2019-05-23T14:51:30.787Z,7.90
2019-05-23T14:54:07.802Z,8.85
2019-05-23T14:56:40.142Z,10.23
2019-05-23T14:59:09.428Z,7.50
2019-05-23T15:01:38.841Z,8.03
2019-05-23T15:04:08.150Z,7.60
2019-05-23T15:06:37.543Z,8.65
2019-05-23T15:09:09.930Z,7.87
2019-05-23T15:11:39.409Z,10.40
2019-05-23T15:14:08.735Z,10.38
2019-05-23T15:16:38.349Z,8.68
2019-05-23T15:19:07.710Z,7.75
2019-05-23T15:21:36.997Z,10.00
2019-05-23T15:24:06.360Z,8.30
2019-05-23T15:26:36.050Z,9.75
2019-05-23T15:29:06.127Z,8.65
2019-05-23T15:31:35.787Z,9.35
2019-05-23T15:34:05.181Z,8.18
2019-05-23T15:36:34.801Z,9.28
2019-05-23T15:39:09.949Z,8.20
2019-05-23T15:41:38.317Z,7.40
2019-05-23T15:44:24.273Z,10.10
2019-05-23T15:46:38.764Z,10.80
2019-05-23T15:49:09.604Z,10.15
2019-05-23T15:51:40.593Z,9.50
2019-05-23T15:54:29.707Z,9.38
2019-05-23T15:57:15.894Z,10.65
2019-05-23T15:59:49.475Z,8.75
2019-05-23T16:02:20.379Z,7.87
2019-05-23T16:04:50.312Z,7.37
2019-05-23T16:07:20.160Z,9.55
2019-05-23T16:09:49.913Z,10.82
2019-05-23T16:12:19.510Z,10.53
2019-05-23T16:14:48.870Z,10.58
2019-05-23T16:17:18.151Z,11.10
2019-05-23T16:19:47.448Z,9.00
2019-05-23T16:22:16.924Z,10.82
2019-05-23T16:24:46.682Z,11.97
2019-05-23T16:27:16.216Z,10.55
2019-05-23T16:29:45.576Z,11.38
2019-05-23T16:32:15.233Z,10.48
2019-05-23T16:34:44.799Z,10.78
2019-05-23T16:37:14.334Z,9.73
2019-05-23T16:39:48.153Z,10.88
2019-05-23T16:42:14.987Z,11.55
2019-05-23T16:44:44.604Z,11.55
2019-05-23T16:47:13.899Z,11.60
2019-05-23T16:49:43.194Z,12.75
2019-05-23T16:52:12.668Z,12.15
2019-05-23T16:54:43.649Z,12.10
2019-05-23T16:57:20.700Z,11.05
2019-05-23T16:59:54.704Z,10.38
2019-05-23T17:02:26.064Z,10.60
2019-05-23T17:05:09.115Z,9.85
2019-05-23T17:07:30.156Z,11.78
2019-05-23T17:10:08.885Z,11.03
2019-05-23T17:12:39.200Z,10.00
2019-05-23T17:15:20.085Z,10.10
2019-05-23T17:18:07.648Z,10.60
2019-05-23T17:20:47.580Z,11.03
2019-05-23T17:23:35.244Z,9.55
2019-05-23T17:26:25.335Z,10.90
2019-05-23T17:28:56.091Z,10.28
2019-05-23T17:31:27.348Z,10.05
2019-05-23T17:33:56.744Z,10.85
2019-05-23T17:36:26.160Z,10.82
2019-05-23T17:38:55.527Z,10.20
2019-05-23T17:41:25.136Z,10.05
2019-05-23T17:43:54.440Z,11.65
2019-05-23T17:46:23.794Z,9.15
2019-05-23T17:48:53.251Z,9.60
2019-05-23T17:51:22.966Z,11.65
2019-05-23T17:53:52.320Z,9.10
2019-05-23T17:56:21.744Z,10.95
2019-05-23T17:58:51.584Z,8.93
2019-05-23T18:01:21.832Z,8.48
2019-05-23T18:03:51.259Z,9.43
2019-05-23T18:06:20.890Z,8.50
2019-05-23T18:08:50.733Z,10.25
2019-05-23T18:11:20.284Z,10.28
2019-05-23T18:13:50.079Z,9.85
2019-05-23T18:16:20.001Z,6.97
2019-05-23T18:18:49.747Z,10.03
2019-05-23T18:21:19.328Z,6.15
2019-05-23T18:23:48.880Z,7.90
2019-05-23T18:26:18.386Z,6.70
2019-05-23T18:28:47.669Z,8.58
2019-05-23T18:31:18.671Z,13.80
2019-05-23T18:33:55.146Z,6.62
2019-05-23T18:36:25.065Z,9.38
2019-05-23T18:38:55.156Z,6.87
2019-05-23T18:41:25.067Z,7.58
2019-05-23T18:43:54.840Z,6.25
2019-05-23T18:46:31.616Z,6.75
2019-05-23T18:49:02.057Z,7.45
2019-05-23T18:51:31.980Z,7.28
2019-05-23T18:54:01.796Z,5.95
2019-05-23T18:56:31.129Z,6.70
2019-05-23T18:59:00.684Z,6.75
2019-05-23T19:01:30.296Z,8.48
2019-05-23T19:03:59.959Z,7.78
2019-05-23T19:06:29.725Z,7.65
2019-05-23T19:08:59.298Z,6.22
2019-05-23T19:11:29.071Z,6.45
2019-05-23T19:13:58.644Z,6.55
2019-05-23T19:16:29.060Z,7.03
2019-05-23T19:18:58.360Z,7.20
2019-05-23T19:21:28.383Z,7.15
2019-05-23T19:23:57.961Z,8.30
2019-05-23T19:26:27.243Z,7.08
2019-05-23T19:28:57.066Z,7.55
2019-05-23T19:31:26.649Z,6.58
2019-05-23T19:33:55.951Z,6.95
2019-05-23T19:36:25.311Z,8.70
2019-05-23T19:38:54.731Z,7.12
2019-05-23T19:41:36.773Z,6.75
2019-05-23T19:43:55.755Z,6.85
2019-05-23T19:46:25.102Z,7.20
2019-05-23T19:48:55.058Z,7.85
2019-05-23T19:51:24.406Z,8.50
2019-05-23T19:53:53.759Z,8.50
2019-05-23T19:56:23.489Z,8.35
2019-05-23T19:58:52.771Z,8.53
2019-05-23T20:01:22.137Z,8.78
2019-05-23T20:03:51.579Z,7.70
2019-05-23T20:06:21.131Z,7.33
2019-05-23T20:08:50.403Z,7.08
2019-05-23T20:11:19.703Z,7.53
2019-05-23T20:13:48.975Z,10.48
2019-05-23T20:16:18.273Z,8.50
2019-05-23T20:18:47.712Z,7.95
2019-05-23T20:21:18.268Z,7.10
2019-05-23T20:23:47.555Z,8.98
2019-05-23T20:26:17.501Z,7.97
2019-05-23T20:28:46.790Z,9.60
2019-05-23T20:31:16.411Z,7.25
2019-05-23T20:33:45.702Z,8.03
2019-05-23T20:36:16.025Z,9.03
2019-05-23T20:38:45.384Z,6.92
2019-05-23T20:41:14.736Z,8.05
2019-05-23T20:43:44.895Z,7.86
2019-05-23T20:46:14.755Z,7.15
2019-05-23T20:48:44.054Z,8.20
2019-05-23T20:51:14.188Z,6.90
2019-05-23T20:53:44.164Z,7.42
2019-05-23T20:56:13.503Z,8.40
2019-05-23T20:58:42.771Z,7.90
2019-05-23T21:01:16.293Z,8.15
2019-05-23T21:03:45.452Z,7.97
2019-05-23T21:06:15.392Z,8.28
2019-05-23T21:08:44.722Z,7.87
2019-05-23T21:11:13.999Z,9.75
2019-05-23T21:13:43.307Z,7.37
2019-05-23T21:16:12.597Z,8.60
2019-05-23T21:18:42.221Z,8.03
2019-05-23T21:21:11.647Z,7.80
2019-05-23T21:23:41.062Z,7.08
2019-05-23T21:26:10.377Z,8.58
2019-05-23T21:28:39.673Z,6.40
2019-05-23T21:31:10.671Z,7.67
2019-05-23T21:33:39.971Z,8.53
2019-05-23T21:36:09.571Z,7.80
2019-05-23T21:38:38.932Z,8.28
2019-05-23T21:41:08.211Z,7.72
2019-05-23T21:43:37.517Z,7.60
2019-05-23T21:46:06.851Z,6.45
2019-05-23T21:48:36.150Z,7.00
2019-05-23T21:51:05.423Z,7.78
2019-05-23T21:53:34.789Z,7.22
2019-05-23T21:56:04.407Z,10.98
2019-05-23T21:58:33.700Z,7.80
2019-05-23T22:01:06.779Z,8.13
2019-05-23T22:03:58.792Z,7.00
2019-05-23T22:06:41.783Z,7.60
2019-05-23T22:09:12.782Z,8.45
2019-05-23T22:11:42.143Z,7.55
2019-05-23T22:14:11.427Z,7.75
2019-05-23T22:16:40.787Z,7.70
2019-05-23T22:19:11.863Z,7.40
2019-05-23T22:21:41.231Z,7.90
2019-05-23T22:24:10.527Z,6.97
2019-05-23T22:26:39.824Z,7.25
2019-05-23T22:29:09.556Z,7.70
2019-05-23T22:31:38.849Z,7.90
2019-05-23T22:34:12.409Z,7.92
2019-05-23T22:36:41.683Z,7.45
2019-05-23T22:39:11.256Z,8.50
2019-05-23T22:41:40.542Z,7.90
2019-05-23T22:44:10.152Z,8.05
2019-05-23T22:46:39.899Z,7.75
2019-05-23T22:49:09.198Z,7.95
2019-05-23T22:51:38.776Z,9.40
2019-05-23T22:54:08.244Z,6.87
2019-05-23T22:56:37.524Z,10.32
2019-05-23T22:59:06.803Z,6.75
2019-05-23T23:01:36.721Z,7.03
2019-05-23T23:04:06.607Z,6.90
2019-05-23T23:06:35.887Z,9.95
2019-05-23T23:09:07.267Z,7.97
2019-05-23T23:11:36.608Z,7.87
2019-05-23T23:14:06.367Z,8.45
2019-05-23T23:16:35.648Z,7.80
2019-05-23T23:19:05.053Z,7.70
2019-05-23T23:21:34.384Z,7.60
2019-05-23T23:24:03.758Z,8.45
2019-05-23T23:26:33.035Z,8.30
2019-05-23T23:29:02.323Z,9.05
2019-05-23T23:31:31.605Z,8.10
2019-05-23T23:34:00.905Z,8.05
2019-05-23T23:36:30.179Z,7.78
2019-05-23T23:38:59.475Z,7.35
2019-05-23T23:41:28.765Z,8.65
2019-05-23T23:43:59.948Z,7.42
2019-05-23T23:46:47.451Z,10.00
2019-05-23T23:49:34.907Z,8.18
2019-05-23T23:52:22.092Z,7.97
2019-05-23T23:55:09.375Z,7.35
2019-05-23T23:57:57.377Z,8.88
